Pagrindinis puslapis
METAR-TAF:

METAR-TAF

Oro uostai :

Khon Kaen, Tailandas

platuma: 16-26N, ilguma: 102-50E, Aukštis: 165 m

Dabartinis oras

Ataskaita buvo paskelbta 20 minutes, ne 09:00 UTC
Vėjas 7 kt iš Rytų/Šiaurės Rytų, svyruoja nuo Šiaurės/Šiaurės Rytų ir Rytų/Pietryčių
Temperatūra 28°C
Drėgmė 40%
Slėgis 1015 hPa
Matomumas 10 km arba daugiau
Išsisklaidę debesys ne aukštis 3500 ft

METAR: VTUK 170900Z 07007KT 020V120 9999 SCT035 28/13 Q1015 NOSIG

Laikas: 16:20 (09:20 UTC)

Prognozė

Ataskaita buvo paskelbta 4 valandos ir 20 minutes, ne 05:00 UTC
Prognozė galioja nuo 17 metu 06 UTC su 18 metu 06 UTC
Vėjas 8 kt iš Rytų/Šiaurės Rytų
Matomumas: 9000 m
Mažai debesys ne aukštis 3000 ft
Išsisklaidę debesys ne aukštis 10000 ft

TAF: VTUK 170500Z 1706/1806 06008KT 9000 FEW030 SCT100

Orai ataskaitas ir orų prognozės (METAR, TAF).

turimą stotys yra geltonos ir raudonos taškus žemėlapyje.

Perkelti pele per norėdami pamatyti stoties vardą.

Tada spustelėkite, norėdami matyti oro stebėjimo ir prognozės.

Norėdami pakeisti žemėlapį: spustelėkite ant žalios mygtukų su juodo kryžiaus žemyn,; žalią mygtuką su brūkšneliu, jei norite nutolinti; arba žalių rodyklių gretimoms žemėlapius.


METAR-TAF: